Time;durP1;ratioP1;P1;durP2;ratioP2;P2;SDS_P1;SDS_P2;PMS_P1;PMS_P2;Temp;Humidity;BMP_temperature;BMP_pressure;BME280_temperature;BME280_humidity;BME280_pressure;Samples;Min_cycle;Max_cycle;Signal;HPM_P1;HPM_P2
2021/06/21 00:00:31;;;;;;;13.40;4.35;;;;;;;21.56;66.73;95418.41;5094253;28;20051;-74
2021/06/21 00:02:58;;;;;;;15.15;4.57;;;;;;;21.59;66.66;95400.94;5093513;28;20055;-73
2021/06/21 00:05:24;;;;;;;15.18;4.50;;;;;;;21.63;66.59;95401.69;5092860;28;20048;-75
2021/06/21 00:07:51;;;;;;;16.48;4.72;;;;;;;21.67;66.50;95400.88;5093152;28;20514;-73
2021/06/21 00:10:19;;;;;;;15.15;4.25;;;;;;;21.67;66.38;95423.81;5092813;28;20048;-73
2021/06/21 00:12:47;;;;;;;19.90;5.28;;;;;;;21.67;66.34;95425.81;5093388;28;20062;-73
2021/06/21 00:15:15;;;;;;;14.88;4.82;;;;;;;21.66;66.44;95440.84;5092681;28;20048;-73
2021/06/21 00:17:42;;;;;;;15.02;4.45;;;;;;;21.61;66.14;95440.13;5093251;28;20040;-74
2021/06/21 00:20:10;;;;;;;18.00;3.83;;;;;;;21.62;66.32;95449.22;5092478;28;20395;-73
2021/06/21 00:22:36;;;;;;;18.35;4.65;;;;;;;21.67;65.98;95447.97;5093131;28;20044;-74
2021/06/21 00:25:04;;;;;;;11.15;4.10;;;;;;;21.69;65.28;95445.56;5092702;28;20043;-72
2021/06/21 00:27:34;;;;;;;14.80;4.10;;;;;;;21.69;65.51;95440.03;5092922;28;20051;-73
2021/06/21 00:30:00;;;;;;;14.20;4.20;;;;;;;21.68;65.92;95446.78;5092944;28;20098;-73
2021/06/21 00:32:27;;;;;;;13.60;4.40;;;;;;;21.62;66.30;95455.53;5092574;28;20479;-73
2021/06/21 00:34:53;;;;;;;15.15;3.80;;;;;;;21.62;65.95;95461.06;5092849;28;20062;-73
2021/06/21 00:37:20;;;;;;;17.08;4.65;;;;;;;21.57;66.21;95453.22;5107889;28;20044;-73
2021/06/21 00:39:46;;;;;;;18.17;5.18;;;;;;;21.42;66.76;95446.22;5112986;28;20047;-73
2021/06/21 00:42:13;;;;;;;18.83;5.25;;;;;;;21.28;67.44;95458.19;5112405;28;20406;-73
2021/06/21 00:44:41;;;;;;;21.25;5.68;;;;;;;21.16;67.96;95455.16;5112846;28;20509;-75
2021/06/21 00:47:08;;;;;;;17.90;5.72;;;;;;;21.07;68.18;95459.16;5112415;28;20044;-73
2021/06/21 00:49:34;;;;;;;15.07;5.30;;;;;;;20.97;68.80;95468.31;5113238;28;20053;-74
2021/06/21 00:52:01;;;;;;;13.63;4.97;;;;;;;20.78;69.27;95480.72;5112802;28;20069;-73
2021/06/21 00:54:28;;;;;;;16.58;6.13;;;;;;;20.63;69.94;95479.25;5112660;28;20043;-73
2021/06/21 00:56:55;;;;;;;16.88;5.38;;;;;;;20.54;70.41;95479.69;5112863;28;20048;-73
2021/06/21 00:59:21;;;;;;;16.88;6.28;;;;;;;20.57;70.68;95478.88;5102598;28;20426;-73
2021/06/21 01:01:50;;;;;;;17.50;6.00;;;;;;;20.58;70.70;95461.09;5092366;28;20048;-73
2021/06/21 01:04:16;;;;;;;14.88;5.03;;;;;;;20.63;70.78;95442.50;5091157;28;20047;-73
2021/06/21 01:06:43;;;;;;;13.18;4.93;;;;;;;20.68;70.87;95453.13;5101022;28;20048;-73
2021/06/21 01:09:09;;;;;;;16.42;4.97;;;;;;;20.74;70.51;95459.81;5111802;28;20048;-73
2021/06/21 01:11:49;;;;;;;16.17;5.22;;;;;;;20.79;70.53;95459.38;5112569;28;20044;-73
2021/06/21 01:14:22;;;;;;;20.50;5.78;;;;;;;20.81;70.51;95470.81;5112031;28;20047;-73
2021/06/21 01:16:55;;;;;;;15.73;5.07;;;;;;;20.84;70.70;95458.94;5112704;28;20035;-73
2021/06/21 01:19:26;;;;;;;;;;;;;;;20.82;70.78;95466.84;5111953;28;20533;-73
2021/06/21 01:22:28;;;;;;;18.20;6.07;;;;;;;20.69;71.37;95460.25;5111780;28;19927;-73
2021/06/21 01:25:08;;;;;;;21.42;5.85;;;;;;;20.65;71.74;95470.53;5111712;28;20047;-73
2021/06/21 01:27:49;;;;;;;17.92;6.68;;;;;;;20.63;71.75;95450.78;5111661;28;20089;-73
2021/06/21 01:30:19;;;;;;;22.23;5.57;;;;;;;20.68;71.55;95453.91;5094369;28;20048;-75
2021/06/21 01:32:49;;;;;;;17.60;5.68;;;;;;;20.67;71.56;95460.63;5091881;28;20062;-73
2021/06/21 01:35:28;;;;;;;16.75;6.43;;;;;;;20.66;71.33;95461.03;5091369;28;20051;-74
2021/06/21 01:37:58;;;;;;;23.55;6.95;;;;;;;20.64;71.73;95455.13;5071432;28;20055;-75
2021/06/21 01:40:26;;;;;;;20.48;6.28;;;;;;;20.66;71.69;95438.91;5070936;28;20055;-73
2021/06/21 01:42:55;;;;;;;19.48;5.80;;;;;;;20.67;71.53;95429.41;5071265;28;20051;-73
2021/06/21 01:45:23;;;;;;;14.48;6.03;;;;;;;20.61;71.64;95414.44;5070925;28;20052;-73
2021/06/21 01:47:53;;;;;;;14.15;5.75;;;;;;;20.65;71.48;95437.34;5071271;28;20040;-73
2021/06/21 01:50:23;;;;;;;17.58;5.85;;;;;;;20.62;71.84;95443.66;5070798;28;20075;-73
2021/06/21 01:52:56;;;;;;;16.20;6.25;;;;;;;20.57;71.97;95431.06;5071090;28;20545;-73
2021/06/21 01:55:26;;;;;;;18.77;6.30;;;;;;;20.57;72.03;95415.28;5070738;28;20166;-73
2021/06/21 01:57:55;;;;;;;13.48;6.28;;;;;;;20.57;72.01;95412.50;5071375;28;20051;-73
2021/06/21 02:00:22;;;;;;;21.02;6.18;;;;;;;20.63;72.07;95417.59;5088799;28;20071;-73
2021/06/21 02:02:51;;;;;;;18.42;6.38;;;;;;;20.65;71.66;95426.28;5091512;28;20051;-73
2021/06/21 02:05:18;;;;;;;16.65;6.38;;;;;;;20.55;71.85;95445.28;5090829;28;20044;-73
2021/06/21 02:07:48;;;;;;;16.95;6.00;;;;;;;20.45;72.59;95448.09;5110130;28;20042;-73
2021/06/21 02:13:37;;;;;;;21.00;6.13;;;;;;;20.21;73.37;95452.56;5079515;28;20132;-74
2021/06/21 02:16:05;;;;;;;19.90;7.30;;;;;;;20.10;73.35;95447.09;5090775;28;20044;-74
2021/06/21 02:18:35;;;;;;;14.82;6.00;;;;;;;19.96;73.75;95447.94;5094648;28;20051;-74
2021/06/21 02:21:03;;;;;;;24.92;6.85;;;;;;;19.93;73.68;95459.78;5094614;28;20040;-73
2021/06/21 02:23:30;;;;;;;22.33;6.90;;;;;;;19.91;73.69;95456.63;5095525;28;20040;-75
2021/06/21 02:25:58;;;;;;;18.58;6.82;;;;;;;19.91;73.89;95467.69;5095471;28;20498;-75
2021/06/21 02:28:27;;;;;;;19.48;6.88;;;;;;;19.92;73.99;95485.84;5094482;28;20048;-75
2021/06/21 02:30:57;;;;;;;19.20;6.03;;;;;;;19.92;73.84;95491.38;5094945;28;20495;-74
2021/06/21 02:33:25;;;;;;;16.17;6.22;;;;;;;19.93;73.73;95492.94;5094678;28;20077;-75
2021/06/21 02:35:53;;;;;;;15.82;5.63;;;;;;;19.96;73.48;95486.63;5095290;28;20055;-75
2021/06/21 02:38:20;;;;;;;15.10;5.82;;;;;;;19.92;73.47;95477.56;5094748;28;20040;-74
2021/06/21 02:40:47;;;;;;;18.15;5.90;;;;;;;19.93;73.43;95492.94;5095276;28;20044;-74
2021/06/21 02:43:14;;;;;;;17.23;6.15;;;;;;;19.95;73.59;95492.56;5093993;28;20055;-74
2021/06/21 02:45:40;;;;;;;17.55;5.68;;;;;;;19.95;73.47;95495.31;5094744;28;20498;-74
2021/06/21 02:48:09;;;;;;;18.65;6.30;;;;;;;19.94;73.42;95493.72;5094449;28;20044;-75
2021/06/21 02:50:38;;;;;;;15.45;5.63;;;;;;;19.93;73.17;95501.22;5094971;28;20538;-75
2021/06/21 02:53:10;;;;;;;17.52;5.38;;;;;;;19.92;72.55;95499.66;5094178;28;20048;-74
2021/06/21 02:55:45;;;;;;;15.55;5.93;;;;;;;19.91;72.50;95500.84;5095053;28;20056;-75
2021/06/21 02:58:18;;;;;;;17.52;5.00;;;;;;;19.90;72.62;95502.03;5094346;28;20051;-74
2021/06/21 03:00:50;;;;;;;17.77;5.95;;;;;;;19.81;72.29;95494.16;5094946;28;20036;-75
2021/06/21 03:03:17;;;;;;;13.13;5.87;;;;;;;19.76;72.16;95491.81;5094227;28;20044;-75
2021/06/21 03:05:47;;;;;;;20.45;5.13;;;;;;;19.74;71.90;95501.69;5094523;28;20044;-75
2021/06/21 03:08:15;;;;;;;12.98;5.45;;;;;;;19.70;72.09;95506.44;5093870;28;20055;-74
2021/06/21 03:10:42;;;;;;;11.45;4.03;;;;;;;19.66;71.74;95513.91;5094438;28;20040;-75
2021/06/21 03:13:09;;;;;;;17.25;4.43;;;;;;;19.59;71.56;95514.72;5093530;28;20036;-74
2021/06/21 03:15:37;;;;;;;11.23;4.47;;;;;;;19.54;71.58;95521.41;5094644;28;20044;-75
2021/06/21 03:18:05;;;;;;;15.82;4.20;;;;;;;19.52;71.81;95521.03;5093878;28;20046;-75
2021/06/21 03:20:32;;;;;;;15.55;4.60;;;;;;;19.55;71.13;95528.50;5094310;28;20048;-74
2021/06/21 03:23:01;;;;;;;14.57;4.13;;;;;;;19.56;71.18;95535.59;5094101;28;20044;-75
2021/06/21 03:25:30;;;;;;;14.30;4.35;;;;;;;19.55;70.87;95545.06;5093734;28;20072;-75
2021/06/21 03:27:59;;;;;;;11.68;3.78;;;;;;;19.51;71.02;95549.81;5094010;28;20054;-75
2021/06/21 03:30:26;;;;;;;10.18;4.40;;;;;;;19.44;70.90;95558.09;5092826;28;20040;-75
2021/06/21 03:32:53;;;;;;;13.18;3.70;;;;;;;19.36;71.45;95559.25;5091662;28;20043;-75
2021/06/21 03:35:21;;;;;;;12.80;3.55;;;;;;;19.33;71.41;95557.31;5073298;28;20048;-75
2021/06/21 03:37:48;;;;;;;11.32;3.78;;;;;;;19.31;71.42;95554.13;5073836;28;20396;-74
2021/06/21 03:40:15;;;;;;;14.95;3.45;;;;;;;19.30;71.53;95561.63;5073253;28;20040;-75
2021/06/21 03:42:43;;;;;;;15.65;3.83;;;;;;;19.34;71.79;95572.69;5074281;28;20044;-75
2021/06/21 03:45:12;;;;;;;14.57;3.50;;;;;;;19.36;71.52;95570.31;5093482;28;20051;-74
2021/06/21 03:47:39;;;;;;;9.88;2.83;;;;;;;19.44;71.00;95571.91;5093727;28;20047;-75
2021/06/21 03:50:08;;;;;;;13.57;3.10;;;;;;;19.48;70.58;95567.16;5093178;28;20048;-74
2021/06/21 03:52:34;;;;;;;14.23;3.75;;;;;;;19.52;70.46;95578.19;5093762;28;20047;-74
2021/06/21 03:55:07;;;;;;;11.30;3.13;;;;;;;19.54;70.42;95584.91;5093816;28;20051;-75
2021/06/21 03:57:35;;;;;;;14.43;4.30;;;;;;;19.55;70.39;95592.00;5093730;28;20456;-74
2021/06/21 04:00:07;;;;;;;14.23;3.58;;;;;;;19.58;70.41;95592.44;5078125;28;20045;-73
2021/06/21 04:02:33;;;;;;;10.13;3.90;;;;;;;19.59;70.77;95600.34;5073648;28;20048;-75
2021/06/21 04:05:00;;;;;;;11.68;3.63;;;;;;;19.63;70.60;95600.31;5073241;28;20090;-75
2021/06/21 04:07:26;;;;;;;17.80;3.90;;;;;;;19.59;70.43;95613.34;5072630;28;20049;-75
2021/06/21 04:09:53;;;;;;;16.60;4.00;;;;;;;19.59;70.91;95610.56;5073272;28;20063;-74
2021/06/21 04:12:19;;;;;;;11.05;3.15;;;;;;;19.62;70.86;95615.31;5072807;28;20049;-75
2021/06/21 04:14:46;;;;;;;13.32;3.65;;;;;;;19.60;71.11;95612.97;5090652;28;20067;-75
2021/06/21 04:17:14;;;;;;;11.50;3.55;;;;;;;19.62;71.32;95618.06;5092940;28;20047;-75
2021/06/21 04:19:40;;;;;;;13.52;3.10;;;;;;;19.67;71.21;95617.69;5093275;28;20056;-75
2021/06/21 04:22:07;;;;;;;16.30;3.58;;;;;;;19.72;71.37;95625.56;5092764;28;20521;-74
2021/06/21 04:24:33;;;;;;;18.20;3.70;;;;;;;19.76;71.59;95626.38;5092754;28;20654;-74
2021/06/21 04:27:00;;;;;;;14.60;3.13;;;;;;;19.78;71.52;95624.00;5093291;28;20402;-74
2021/06/21 04:29:26;;;;;;;15.50;4.35;;;;;;;19.90;71.58;95636.63;5082216;28;20036;-74
2021/06/21 04:31:53;;;;;;;15.95;4.85;;;;;;;19.93;71.12;95638.59;5072763;28;20048;-74
2021/06/21 04:34:21;;;;;;;15.32;3.97;;;;;;;19.94;71.81;95629.13;5072156;28;20040;-74
2021/06/21 04:36:47;;;;;;;16.98;4.78;;;;;;;19.95;72.13;95644.53;5072581;28;20477;-74
2021/06/21 04:39:14;;;;;;;12.75;4.30;;;;;;;20.00;72.25;95650.44;5072181;28;20056;-74
2021/06/21 04:41:40;;;;;;;17.00;5.15;;;;;;;20.07;72.11;95658.72;5072366;28;20052;-75
2021/06/21 04:44:06;;;;;;;18.08;5.00;;;;;;;20.13;72.27;95655.56;5084326;28;20048;-74
2021/06/21 04:46:34;;;;;;;14.07;4.55;;;;;;;20.16;72.21;95654.78;5092773;28;20047;-74
2021/06/21 04:49:00;;;;;;;22.70;5.32;;;;;;;20.23;72.72;95649.22;5092364;28;20048;-75
2021/06/21 04:51:31;;;;;;;15.88;4.50;;;;;;;20.28;72.38;95646.06;5092436;28;20139;-74
2021/06/21 04:53:58;;;;;;;18.70;5.07;;;;;;;20.32;71.80;95644.88;5092386;28;20687;-75
2021/06/21 04:56:24;;;;;;;17.65;4.57;;;;;;;20.36;72.04;95642.09;5092149;28;20044;-74
2021/06/21 04:58:51;;;;;;;15.90;5.10;;;;;;;20.39;71.32;95641.28;5087003;28;20415;-74
2021/06/21 05:01:17;;;;;;;13.23;4.13;;;;;;;20.41;71.67;95652.75;5071930;28;20048;-74
2021/06/21 05:03:44;;;;;;;18.67;4.53;;;;;;;20.42;71.53;95639.72;5072277;28;20537;-74
2021/06/21 05:06:10;;;;;;;15.52;4.35;;;;;;;20.48;71.15;95638.94;5071581;28;20075;-75
2021/06/21 05:08:40;;;;;;;15.13;4.70;;;;;;;20.51;70.12;95637.31;5072204;28;20052;-75
2021/06/21 05:11:07;;;;;;;14.82;4.28;;;;;;;20.50;69.40;95642.06;5071490;28;20047;-74
2021/06/21 05:13:33;;;;;;;18.58;3.92;;;;;;;20.57;69.20;95624.69;5078255;28;20048;-75
2021/06/21 05:16:00;;;;;;;17.27;4.53;;;;;;;20.59;69.28;95620.31;5092199;28;20044;-74
2021/06/21 05:18:26;;;;;;;17.98;4.30;;;;;;;20.67;69.92;95618.31;5091771;28;20044;-74
2021/06/21 05:20:52;;;;;;;14.57;4.22;;;;;;;20.75;69.65;95628.16;5091893;28;20047;-74
2021/06/21 05:23:19;;;;;;;17.75;4.38;;;;;;;20.81;69.35;95628.53;5091580;28;20052;-74
2021/06/21 05:25:47;;;;;;;17.08;4.28;;;;;;;20.82;68.33;95627.34;5092137;28;20046;-74
2021/06/21 05:28:13;;;;;;;17.58;4.43;;;;;;;20.83;68.18;95628.94;5091530;28;20040;-74
2021/06/21 05:30:40;;;;;;;15.68;4.25;;;;;;;20.88;67.63;95634.06;5091714;28;20422;-74
2021/06/21 05:33:06;;;;;;;16.42;4.35;;;;;;;20.94;67.93;95631.66;5087239;28;20048;-74
2021/06/21 05:35:33;;;;;;;12.88;4.78;;;;;;;20.94;67.74;95643.50;5071408;28;20048;-76
2021/06/21 05:37:59;;;;;;;19.52;3.92;;;;;;;20.96;67.67;95640.34;5071434;28;20056;-75
2021/06/21 05:40:26;;;;;;;17.35;3.92;;;;;;;21.05;67.20;95641.47;5070726;28;20495;-76
2021/06/21 05:42:53;;;;;;;17.40;4.50;;;;;;;21.17;67.17;95650.50;5070838;28;20048;-76
2021/06/21 05:45:20;;;;;;;14.38;4.15;;;;;;;21.23;66.89;95643.34;5069516;28;20684;-76
2021/06/21 05:47:46;;;;;;;17.88;3.95;;;;;;;21.31;64.73;95650.47;5069766;28;20044;-76
2021/06/21 05:50:14;;;;;;;20.92;4.10;;;;;;;21.34;65.71;95647.66;5069563;28;20061;-76
2021/06/21 05:52:40;;;;;;;19.15;3.78;;;;;;;21.39;65.09;95646.44;5068446;28;20044;-75
2021/06/21 05:55:09;;;;;;;22.75;4.95;;;;;;;21.39;64.53;95640.91;5066235;28;20049;-75
2021/06/21 05:57:36;;;;;;;18.17;4.35;;;;;;;21.41;65.15;95637.75;5067369;28;20044;-74
2021/06/21 06:00:07;;;;;;;19.58;4.35;;;;;;;21.48;64.69;95637.69;5067903;28;20411;-74
2021/06/21 06:02:34;;;;;;;16.25;3.95;;;;;;;21.54;63.87;95650.69;5068681;28;20040;-75
2021/06/21 06:05:00;;;;;;;14.15;3.30;;;;;;;21.59;64.15;95644.72;5070427;28;20071;-75
2021/06/21 06:07:26;;;;;;;13.68;3.85;;;;;;;21.65;64.71;95647.06;5070338;28;20045;-75
2021/06/21 06:09:53;;;;;;;19.60;3.65;;;;;;;21.73;64.26;95640.28;5071006;28;20047;-75
2021/06/21 06:12:19;;;;;;;11.82;3.40;;;;;;;21.75;63.02;95644.22;5070757;28;20048;-75
2021/06/21 06:14:46;;;;;;;13.85;3.22;;;;;;;21.74;62.32;95650.16;5069743;28;20047;-75
2021/06/21 06:17:14;;;;;;;8.40;2.72;;;;;;;21.69;62.52;95653.38;5070852;28;20044;-75
2021/06/21 06:19:40;;;;;;;20.35;4.85;;;;;;;21.69;62.79;95664.47;5070539;28;20514;-75
2021/06/21 06:22:07;;;;;;;18.08;3.78;;;;;;;21.70;62.80;95660.47;5069870;28;20041;-75
2021/06/21 06:24:34;;;;;;;16.73;4.05;;;;;;;21.70;61.82;95654.94;5070827;28;20117;-80
2021/06/21 06:27:00;;;;;;;10.77;3.05;;;;;;;21.68;62.05;95657.34;5070969;28;20399;-80
2021/06/21 06:29:29;;;;;;;14.35;3.80;;;;;;;21.76;61.89;95639.44;5070366;28;20040;-79
2021/06/21 06:31:55;;;;;;;14.30;3.05;;;;;;;21.77;60.83;95638.25;5071389;28;20503;-79
2021/06/21 06:34:23;;;;;;;16.77;3.83;;;;;;;21.79;62.10;95639.44;5070557;28;20078;-79
2021/06/21 06:36:50;;;;;;;17.27;3.45;;;;;;;21.84;61.43;95640.97;5071109;28;20040;-79
2021/06/21 06:39:16;;;;;;;15.90;3.30;;;;;;;21.89;61.40;95644.09;5070455;28;20044;-79
2021/06/21 06:41:43;;;;;;;15.98;3.83;;;;;;;21.97;60.06;95642.03;5071159;28;20040;-78
2021/06/21 06:44:09;;;;;;;19.08;3.53;;;;;;;21.99;60.60;95648.00;5069326;28;20102;-78
2021/06/21 06:46:36;;;;;;;12.85;3.65;;;;;;;22.02;59.22;95649.91;5068870;28;20060;-79
2021/06/21 06:49:04;;;;;;;10.13;3.30;;;;;;;22.01;58.29;95648.34;5070345;28;20048;-78
2021/06/21 06:51:35;;;;;;;13.93;3.80;;;;;;;22.05;59.01;95646.34;5070700;28;20047;-79
2021/06/21 06:54:04;;;;;;;15.90;3.13;;;;;;;22.06;59.87;95644.34;5070324;28;20052;-74
2021/06/21 06:59:15;;;;;;;11.75;2.97;;;;;;;22.19;59.35;95647.47;5070701;28;20059;-79
2021/06/21 07:01:42;;;;;;;14.75;3.75;;;;;;;22.25;58.49;95646.59;5070975;28;20049;-80
2021/06/21 07:04:09;;;;;;;12.07;2.75;;;;;;;22.30;58.37;95642.59;5072656;28;20048;-78
2021/06/21 07:06:37;;;;;;;13.13;3.40;;;;;;;22.31;58.00;95633.06;5074541;28;20495;-79
2021/06/21 07:09:04;;;;;;;14.50;3.03;;;;;;;22.37;57.49;95636.97;5074557;28;20048;-79
2021/06/21 07:11:35;;;;;;;13.00;2.90;;;;;;;22.46;58.66;95639.25;5074553;28;20499;-79
2021/06/21 07:14:01;;;;;;;14.15;2.88;;;;;;;22.57;56.91;95643.47;5074341;28;20128;-79
2021/06/21 07:16:28;;;;;;;11.20;3.20;;;;;;;22.63;57.72;95624.38;5073885;28;20395;-78
2021/06/21 07:18:54;;;;;;;13.88;3.00;;;;;;;22.75;56.84;95625.81;5073989;28;20494;-79
2021/06/21 07:21:21;;;;;;;13.25;3.42;;;;;;;22.83;56.73;95624.56;5073617;28;20051;-78
2021/06/21 07:23:49;;;;;;;18.05;3.45;;;;;;;22.89;56.84;95620.91;5074097;28;20498;-79
2021/06/21 07:26:15;;;;;;;11.85;3.33;;;;;;;23.00;56.88;95623.56;5073719;28;20487;-79
2021/06/21 07:28:42;;;;;;;15.38;2.67;;;;;;;23.07;54.44;95617.91;5074067;28;20114;-79
2021/06/21 07:31:08;;;;;;;15.27;2.90;;;;;;;23.11;54.29;95621.44;5073501;28;20044;-78
2021/06/21 07:33:35;;;;;;;10.90;2.83;;;;;;;23.16;53.94;95629.28;5074048;28;20128;-79
2021/06/21 07:36:01;;;;;;;10.63;3.38;;;;;;;23.21;53.86;95627.25;5074042;28;20053;-78
2021/06/21 07:38:28;;;;;;;12.35;2.50;;;;;;;23.35;52.69;95633.41;5073961;28;20032;-80
2021/06/21 07:40:57;;;;;;;16.45;3.22;;;;;;;23.38;51.42;95626.22;5073931;28;20058;-79
2021/06/21 07:43:24;;;;;;;6.13;2.08;;;;;;;23.44;52.09;95625.34;5079946;28;20051;-79
2021/06/21 07:45:50;;;;;;;9.43;2.53;;;;;;;23.54;52.09;95623.59;5093794;28;20047;-80
2021/06/21 07:48:17;;;;;;;12.48;3.10;;;;;;;23.65;52.86;95629.81;5093325;28;20043;-80
2021/06/21 07:50:44;;;;;;;15.40;2.63;;;;;;;23.76;49.61;95617.75;5093931;28;20051;-81
2021/06/21 07:53:11;;;;;;;9.82;2.58;;;;;;;23.78;50.47;95610.53;5093406;28;20044;-80
2021/06/21 07:55:37;;;;;;;11.05;2.50;;;;;;;23.88;52.47;95614.38;5093856;28;20040;-80
2021/06/21 07:58:05;;;;;;;8.18;2.20;;;;;;;23.98;49.19;95624.53;5093540;28;20510;-80
2021/06/21 08:00:33;;;;;;;10.60;2.33;;;;;;;24.10;48.90;95621.13;5094082;28;20032;-80
2021/06/21 08:03:00;;;;;;;14.18;2.60;;;;;;;24.24;51.28;95619.31;5093703;28;20081;-79
2021/06/21 08:05:26;;;;;;;11.20;2.75;;;;;;;24.39;50.01;95609.53;5093062;28;20550;-79
2021/06/21 08:07:53;;;;;;;10.43;2.50;;;;;;;24.57;48.57;95609.97;5093429;28;20089;-80
2021/06/21 08:10:20;;;;;;;13.18;2.88;;;;;;;24.68;49.17;95610.53;5093152;28;20044;-79
2021/06/21 08:12:46;;;;;;;8.40;2.60;;;;;;;24.81;46.86;95610.69;5093166;28;20044;-79
2021/06/21 08:15:16;;;;;;;17.50;2.65;;;;;;;24.99;46.44;95610.31;5092702;28;20040;-79
2021/06/21 08:17:42;;;;;;;9.80;2.20;;;;;;;25.78;45.48;95612.16;5093445;28;20037;-79
2021/06/21 08:20:11;;;;;;;15.65;2.20;;;;;;;27.14;42.34;95603.75;5092890;28;20411;-79
2021/06/21 08:22:38;;;;;;;7.30;2.20;;;;;;;28.29;39.27;95604.50;5093650;28;20489;-80
2021/06/21 08:25:06;;;;;;;11.68;2.00;;;;;;;29.10;39.62;95613.28;5092036;28;20044;-79
2021/06/21 08:27:33;;;;;;;13.93;1.88;;;;;;;29.79;38.54;95601.81;5093716;28;20044;-80
2021/06/21 08:29:59;;;;;;;5.97;2.10;;;;;;;30.70;35.27;95608.09;5079008;28;20499;-81
2021/06/21 08:32:28;;;;;;;12.85;2.33;;;;;;;30.97;35.46;95607.31;5072862;28;20044;-80
2021/06/21 08:34:54;;;;;;;8.50;1.90;;;;;;;31.51;33.33;95616.91;5073083;28;20044;-80
2021/06/21 08:37:21;;;;;;;11.27;1.50;;;;;;;32.03;33.07;95607.16;5072491;28;20053;-80
2021/06/21 08:39:50;;;;;;;7.88;1.88;;;;;;;31.86;32.75;95606.78;5073092;28;20422;-80
2021/06/21 08:42:17;;;;;;;14.07;2.88;;;;;;;32.19;31.46;95608.78;5072502;28;20056;-80
2021/06/21 08:44:43;;;;;;;9.00;1.80;;;;;;;32.13;29.89;95610.69;5072805;28;20083;-80
2021/06/21 08:47:12;;;;;;;5.75;1.85;;;;;;;32.35;30.25;95608.41;5072389;28;20076;-80
2021/06/21 08:49:45;;;;;;;8.65;2.17;;;;;;;32.41;30.48;95603.66;5072771;28;20078;-79
2021/06/21 08:52:12;;;;;;;10.88;1.95;;;;;;;32.02;29.83;95610.47;5072199;28;20048;-79
2021/06/21 08:54:38;;;;;;;7.10;2.22;;;;;;;31.54;32.70;95613.94;5072267;28;20042;-81
2021/06/21 08:57:06;;;;;;;9.25;2.33;;;;;;;31.48;32.47;95606.56;5072258;28;20621;-80
2021/06/21 08:59:33;;;;;;;13.27;2.20;;;;;;;31.55;34.96;95606.25;5072781;28;20045;-79
2021/06/21 09:01:59;;;;;;;8.15;2.03;;;;;;;31.17;33.58;95613.22;5072626;28;20048;-79
2021/06/21 09:04:28;;;;;;;7.63;2.10;;;;;;;30.69;35.18;95604.47;5071961;28;20036;-81
2021/06/21 09:07:15;;;;;;;12.05;2.40;;;;;;;30.27;34.97;95602.25;5072118;28;20044;-82
2021/06/21 09:09:41;;;;;;;6.60;2.00;;;;;;;30.04;35.76;95602.81;5072033;28;20083;-80
2021/06/21 09:12:08;;;;;;;9.60;2.40;;;;;;;29.91;35.82;95602.94;5072260;28;20064;-77
2021/06/21 09:14:36;;;;;;;13.45;2.60;;;;;;;29.85;37.42;95602.75;5072278;28;20036;-80
2021/06/21 09:17:05;;;;;;;8.65;2.20;;;;;;;29.96;36.20;95599.50;5072337;28;20055;-79
2021/06/21 09:19:44;;;;;;;10.82;2.33;;;;;;;30.01;34.72;95598.13;5073679;28;20049;-81
2021/06/21 09:22:27;;;;;;;10.02;2.20;;;;;;;29.87;35.67;95591.88;5071948;28;20498;-80
2021/06/21 09:24:54;;;;;;;8.55;2.50;;;;;;;29.82;36.07;95589.66;5071932;28;20044;-80
2021/06/21 09:27:22;;;;;;;10.63;2.55;;;;;;;29.82;35.30;95589.66;5070698;28;20052;-80
2021/06/21 09:29:49;;;;;;;12.68;2.60;;;;;;;29.64;35.27;95583.97;5072040;28;20041;-81
2021/06/21 09:32:16;;;;;;;9.52;2.58;;;;;;;29.48;36.87;95589.81;5071603;28;20044;-82
2021/06/21 09:34:44;;;;;;;6.03;2.03;;;;;;;29.50;36.06;95595.75;5072093;28;20044;-81
2021/06/21 09:37:13;;;;;;;7.47;2.10;;;;;;;29.47;37.40;95593.88;5071537;28;20439;-80
2021/06/21 09:39:43;;;;;;;10.75;2.20;;;;;;;29.45;36.82;95593.56;5072001;28;20395;-81
2021/06/21 09:42:15;;;;;;;10.20;2.70;;;;;;;29.50;36.67;95590.94;5071427;28;20044;-81
2021/06/21 09:44:44;;;;;;;8.18;2.53;;;;;;;29.52;36.40;95593.25;5072447;28;20064;-80
2021/06/21 09:47:13;;;;;;;9.18;2.00;;;;;;;29.48;36.12;95587.00;5075141;28;20463;-81
2021/06/21 09:49:39;;;;;;;15.40;2.50;;;;;;;29.48;35.88;95589.81;5075204;28;20047;-81
2021/06/21 09:52:06;;;;;;;9.27;3.28;;;;;;;29.49;36.50;95582.94;5073266;28;20044;-80
2021/06/21 09:54:34;;;;;;;9.57;2.63;;;;;;;29.45;36.04;95582.34;5073193;28;20052;-81
2021/06/21 09:57:14;;;;;;;8.18;1.90;;;;;;;29.49;36.46;95578.13;5072206;28;20041;-80
2021/06/21 09:59:47;;;;;;;10.13;2.53;;;;;;;29.60;35.59;95583.34;5071778;28;20080;-80
2021/06/21 10:02:21;;;;;;;12.32;2.42;;;;;;;29.48;36.56;95576.56;5071367;28;20503;-81
2021/06/21 10:04:48;;;;;;;10.18;2.30;;;;;;;29.40;33.58;95591.34;5071600;28;20123;-81
2021/06/21 10:07:28;;;;;;;6.95;2.20;;;;;;;29.21;35.70;95591.25;5070797;28;20048;-81
2021/06/21 10:09:57;;;;;;;10.52;2.38;;;;;;;29.21;35.41;95579.25;5071460;28;20052;-81
2021/06/21 10:12:25;;;;;;;9.20;2.08;;;;;;;29.24;36.32;95584.72;5071189;28;20048;-80
2021/06/21 10:14:52;;;;;;;10.45;2.35;;;;;;;29.26;36.60;95581.47;5071846;28;20048;-80
2021/06/21 10:17:18;;;;;;;8.05;2.35;;;;;;;29.32;37.48;95580.38;5071224;28;20403;-80
2021/06/21 10:19:45;;;;;;;9.65;2.00;;;;;;;29.47;36.42;95580.63;5071296;28;20044;-80
2021/06/21 10:22:11;;;;;;;11.07;1.92;;;;;;;29.40;34.26;95580.91;5071985;28;20059;-81
2021/06/21 10:24:38;;;;;;;10.60;2.65;;;;;;;29.28;33.26;95573.34;5071647;28;20040;-80
2021/06/21 10:27:07;;;;;;;12.18;2.00;;;;;;;29.36;37.45;95572.63;5070940;28;20043;-79
2021/06/21 10:29:37;;;;;;;10.23;2.25;;;;;;;29.50;37.19;95573.31;5071445;28;20049;-80
2021/06/21 10:32:06;;;;;;;8.00;2.10;;;;;;;29.63;34.97;95562.78;5071295;28;20491;-79
2021/06/21 10:34:35;;;;;;;9.32;2.35;;;;;;;29.72;36.37;95565.63;5071630;28;20055;-80
2021/06/21 10:37:01;;;;;;;11.32;2.22;;;;;;;29.81;36.25;95564.84;5071352;28;20060;-80
2021/06/21 10:39:29;;;;;;;5.90;1.80;;;;;;;29.94;36.05;95567.56;5094266;28;20051;-79
2021/06/21 10:42:16;;;;;;;9.15;2.30;;;;;;;29.95;34.89;95563.50;5095341;28;20530;-80
2021/06/21 10:44:47;;;;;;;7.72;2.38;;;;;;;29.90;35.51;95557.25;5095083;28;20124;-79
2021/06/21 10:47:34;;;;;;;10.40;2.40;;;;;;;29.96;34.19;95560.22;5094595;28;20052;-80
2021/06/21 10:50:05;;;;;;;9.98;2.10;;;;;;;29.95;34.86;95563.50;5095298;28;20040;-79
2021/06/21 10:52:34;;;;;;;9.32;2.35;;;;;;;29.83;34.46;95574.38;5094725;28;20122;-80
2021/06/21 10:55:33;;;;;;;10.25;1.85;;;;;;;29.84;33.53;95564.72;5095163;28;20051;-80
2021/06/21 10:58:02;;;;;;;7.43;1.80;;;;;;;29.71;34.16;95566.09;5095007;28;20044;-80
2021/06/21 11:00:33;;;;;;;7.47;1.80;;;;;;;29.70;36.71;95564.50;5086513;28;20437;-80
2021/06/21 11:03:00;;;;;;;8.63;1.95;;;;;;;29.75;35.77;95561.09;5094920;28;20560;-80
2021/06/21 11:05:36;;;;;;;8.15;1.80;;;;;;;29.74;33.37;95563.13;5082936;28;20054;-79
2021/06/21 11:08:21;;;;;;;11.85;2.45;;;;;;;29.54;33.84;95562.75;5094241;28;20040;-78
2021/06/21 11:10:50;;;;;;;8.43;1.90;;;;;;;29.47;34.39;95569.41;5094751;28;20049;-80
2021/06/21 11:13:41;;;;;;;11.63;2.13;;;;;;;29.47;36.47;95560.97;5089083;28;20048;-80
2021/06/21 11:16:23;;;;;;;11.77;2.42;;;;;;;29.54;36.65;95559.94;5063865;28;20550;-78
2021/06/21 11:19:10;;;;;;;8.55;2.05;;;;;;;29.58;35.13;95549.38;5075063;28;20041;-79
2021/06/21 11:21:46;;;;;;;10.02;2.00;;;;;;;29.68;35.72;95550.19;5074991;28;20050;-80
2021/06/21 11:24:50;;;;;;;8.60;2.05;;;;;;;29.87;34.80;95552.56;5074842;28;20044;-80
2021/06/21 11:27:18;;;;;;;6.78;1.75;;;;;;;29.81;34.04;95559.25;5074833;28;20052;-80
2021/06/21 11:29:47;;;;;;;8.73;1.92;;;;;;;29.59;34.97;95545.31;5087802;28;20070;-80
2021/06/21 11:32:16;;;;;;;9.90;2.28;;;;;;;29.61;35.86;95551.25;5094214;28;20044;-80
2021/06/21 11:34:48;;;;;;;10.88;2.40;;;;;;;29.53;33.81;95550.75;5094453;28;20487;-79
2021/06/21 11:37:36;;;;;;;12.15;2.17;;;;;;;29.40;34.74;95549.28;5094290;28;20108;-79
2021/06/21 11:40:22;;;;;;;10.77;2.28;;;;;;;29.40;34.68;95540.88;5093998;28;20048;-78